Time;durP1;ratioP1;P1;durP2;ratioP2;P2;SDS_P1;SDS_P2;PMS_P1;PMS_P2;Temp;Humidity;BMP_temperature;BMP_pressure;BME280_temperature;BME280_humidity;BME280_pressure;Samples;Min_cycle;Max_cycle;Signal;HPM_P1;HPM_P2
2023/04/03 00:01:07;;;;;;;2.03;0.40;;;2.50;99.90;;;;;;4967445;28;20483;-67
2023/04/03 00:03:33;;;;;;;2.13;0.40;;;2.40;99.90;;;;;;4974349;28;20043;-67
2023/04/03 00:05:59;;;;;;;2.85;0.50;;;2.40;99.90;;;;;;4944076;28;20054;-67
2023/04/03 00:08:25;;;;;;;1.50;0.32;;;2.40;99.90;;;;;;4949213;28;20150;-67
2023/04/03 00:10:51;;;;;;;2.72;0.55;;;2.30;99.90;;;;;;4946615;28;20122;-67
2023/04/03 00:13:17;;;;;;;2.83;0.60;;;2.20;99.90;;;;;;4966054;28;20046;-67
2023/04/03 00:15:43;;;;;;;3.58;0.50;;;2.30;99.90;;;;;;4964585;28;20098;-67
2023/04/03 00:18:09;;;;;;;1.52;0.50;;;2.20;99.90;;;;;;4948062;28;20043;-67
2023/04/03 00:20:35;;;;;;;1.75;0.60;;;2.10;99.90;;;;;;4952231;28;20443;-67
2023/04/03 00:23:01;;;;;;;3.15;1.05;;;2.20;99.90;;;;;;4943842;28;20129;-67
2023/04/03 00:25:28;;;;;;;2.22;0.40;;;2.20;99.90;;;;;;4966628;28;20053;-67
2023/04/03 00:27:54;;;;;;;2.33;0.63;;;2.10;99.90;;;;;;4948657;28;20042;-67
2023/04/03 00:30:21;;;;;;;2.60;0.57;;;2.10;99.90;;;;;;4952798;28;20065;-67
2023/04/03 00:32:51;;;;;;;0.98;0.40;;;2.10;99.90;;;;;;4946725;28;20079;-67
2023/04/03 00:35:18;;;;;;;3.72;0.70;;;2.00;99.90;;;;;;4965716;28;20533;-67
2023/04/03 00:37:44;;;;;;;1.38;0.52;;;2.00;99.90;;;;;;4947448;28;20039;-67
2023/04/03 00:40:13;;;;;;;2.03;0.60;;;2.00;99.90;;;;;;4935643;28;20038;-67
2023/04/03 00:42:43;;;;;;;2.72;0.47;;;2.00;99.90;;;;;;4950897;28;20573;-67
2023/04/03 00:45:18;;;;;;;2.47;0.50;;;2.00;99.90;;;;;;4969252;28;20042;-67
2023/04/03 00:47:44;;;;;;;2.05;0.60;;;2.00;99.90;;;;;;4945096;28;20043;-67
2023/04/03 00:50:10;;;;;;;1.85;0.70;;;1.90;99.90;;;;;;4966436;28;20442;-67
2023/04/03 00:52:38;;;;;;;2.83;0.63;;;1.90;99.90;;;;;;4951219;28;20122;-67
2023/04/03 00:55:09;;;;;;;2.38;0.63;;;2.00;99.90;;;;;;4947526;28;20101;-67
2023/04/03 00:57:35;;;;;;;2.97;0.60;;;1.90;99.90;;;;;;4944564;28;20035;-67
2023/04/03 01:00:10;;;;;;;1.60;0.90;;;1.90;99.90;;;;;;4953842;28;20117;-67
2023/04/03 01:02:36;;;;;;;2.25;0.80;;;1.90;99.90;;;;;;4945502;28;20077;-67
2023/04/03 01:05:03;;;;;;;4.65;0.80;;;1.80;99.90;;;;;;4948340;28;20101;-67
2023/04/03 01:07:33;;;;;;;3.03;0.70;;;1.80;99.90;;;;;;4949057;28;20431;-67
2023/04/03 01:10:02;;;;;;;3.10;0.68;;;1.80;99.90;;;;;;4965536;28;20505;-67
2023/04/03 01:12:39;;;;;;;3.30;0.68;;;1.70;99.90;;;;;;4959446;28;20066;-67
2023/04/03 01:15:12;;;;;;;2.28;0.60;;;1.70;99.90;;;;;;4964972;28;20039;-67
2023/04/03 01:17:50;;;;;;;2.88;0.50;;;1.70;99.90;;;;;;4965850;28;20449;-67
2023/04/03 01:20:31;;;;;;;2.03;0.70;;;1.60;99.90;;;;;;4965957;28;20097;-67
2023/04/03 01:23:09;;;;;;;3.65;0.55;;;1.60;99.90;;;;;;4949379;28;20086;-67
2023/04/03 01:25:56;;;;;;;4.68;0.80;;;1.60;99.90;;;;;;4947182;28;20415;-67
2023/04/03 01:28:23;;;;;;;4.20;0.70;;;1.60;99.90;;;;;;4963395;28;20494;-67
2023/04/03 01:31:08;;;;;;;4.65;1.10;;;1.50;99.90;;;;;;4962164;28;20048;-67
2023/04/03 01:33:34;;;;;;;1.90;0.65;;;1.50;99.90;;;;;;4948351;28;20039;-67
2023/04/03 01:36:00;;;;;;;3.85;0.80;;;1.50;99.90;;;;;;4953884;28;20093;-67
2023/04/03 01:38:26;;;;;;;3.08;1.05;;;1.40;99.90;;;;;;4964266;28;20047;-67
2023/04/03 01:40:52;;;;;;;3.00;0.73;;;1.50;99.90;;;;;;4963774;28;20039;-67
2023/04/03 01:43:18;;;;;;;2.13;0.47;;;1.40;99.90;;;;;;4964828;28;20106;-66
2023/04/03 01:45:43;;;;;;;2.20;1.05;;;1.40;99.90;;;;;;4952941;28;20066;-67
2023/04/03 01:48:09;;;;;;;1.98;0.70;;;1.50;99.90;;;;;;4949753;28;20054;-67
2023/04/03 01:50:35;;;;;;;1.65;0.55;;;1.30;99.90;;;;;;4947061;28;20062;-67
2023/04/03 01:53:00;;;;;;;2.42;1.00;;;1.30;99.90;;;;;;4966344;28;20107;-67
2023/04/03 01:55:26;;;;;;;4.43;1.17;;;1.30;99.90;;;;;;4963528;28;20047;-67
2023/04/03 01:57:52;;;;;;;3.30;1.20;;;1.20;99.90;;;;;;4947185;28;20084;-67
2023/04/03 02:00:18;;;;;;;2.22;0.88;;;1.20;99.90;;;;;;4944745;28;20066;-67
2023/04/03 02:02:43;;;;;;;3.05;0.90;;;1.20;99.90;;;;;;4951147;28;20059;-67
2023/04/03 02:05:09;;;;;;;2.10;0.82;;;1.20;99.90;;;;;;4968260;28;20116;-67
2023/04/03 02:07:35;;;;;;;4.53;0.82;;;1.20;99.90;;;;;;4947447;28;20447;-67
2023/04/03 02:10:01;;;;;;;3.30;0.75;;;1.20;99.90;;;;;;4962182;28;20462;-67
2023/04/03 02:12:26;;;;;;;5.72;1.42;;;1.20;99.90;;;;;;4955371;28;20490;-67
2023/04/03 02:14:52;;;;;;;3.55;0.70;;;1.10;99.90;;;;;;4950433;28;20046;-67
2023/04/03 02:17:18;;;;;;;4.00;0.90;;;1.10;99.90;;;;;;4951071;28;20043;-67
2023/04/03 02:19:44;;;;;;;4.18;1.00;;;1.20;99.90;;;;;;4969695;28;20243;-67
2023/04/03 02:22:09;;;;;;;2.00;0.80;;;1.10;99.90;;;;;;4966258;28;20046;-67
2023/04/03 02:24:35;;;;;;;4.32;1.42;;;1.10;99.90;;;;;;4951971;28;20146;-67
2023/04/03 02:27:01;;;;;;;3.75;1.10;;;1.00;99.90;;;;;;4969887;28;20078;-67
2023/04/03 02:29:27;;;;;;;1.42;0.70;;;1.00;99.90;;;;;;4963025;28;20176;-67
2023/04/03 02:31:52;;;;;;;4.63;0.90;;;1.00;99.90;;;;;;4950847;28;20126;-67
2023/04/03 02:34:18;;;;;;;4.03;1.13;;;0.90;99.90;;;;;;4964178;28;20043;-67
2023/04/03 02:36:44;;;;;;;2.55;1.00;;;0.90;99.90;;;;;;4966050;28;20081;-67
2023/04/03 02:39:11;;;;;;;2.95;1.00;;;0.90;99.90;;;;;;4967907;28;20047;-67
2023/04/03 02:41:36;;;;;;;3.83;1.00;;;0.90;99.90;;;;;;4947263;28;20051;-67
2023/04/03 02:44:04;;;;;;;2.75;0.95;;;1.00;99.90;;;;;;4965868;28;20046;-67
2023/04/03 02:46:29;;;;;;;4.25;1.05;;;0.90;99.90;;;;;;4948025;28;20143;-67
2023/04/03 02:48:55;;;;;;;3.97;0.93;;;0.80;99.90;;;;;;4962852;28;20159;-67
2023/04/03 02:51:22;;;;;;;3.35;1.38;;;0.80;99.90;;;;;;4946704;28;20039;-67
2023/04/03 02:53:49;;;;;;;3.17;0.88;;;0.80;99.90;;;;;;4948328;28;20047;-67
2023/04/03 02:56:15;;;;;;;4.90;1.45;;;0.80;99.90;;;;;;4950624;28;20039;-67
2023/04/03 02:58:40;;;;;;;3.22;1.05;;;0.80;99.90;;;;;;4946143;28;20435;-67
2023/04/03 03:01:06;;;;;;;5.53;1.40;;;0.80;99.90;;;;;;4961495;28;20081;-67
2023/04/03 03:03:32;;;;;;;2.17;1.00;;;0.80;99.90;;;;;;4949917;28;20039;-67
2023/04/03 03:06:06;;;;;;;2.40;0.77;;;0.80;99.90;;;;;;4945255;28;20194;-67
2023/04/03 03:08:32;;;;;;;4.20;1.10;;;0.70;99.90;;;;;;4978447;28;20052;-67
2023/04/03 03:10:58;;;;;;;6.40;1.40;;;0.70;99.90;;;;;;4948733;28;20047;-67
2023/04/03 03:13:24;;;;;;;3.58;0.95;;;0.70;99.90;;;;;;4936015;29;20058;-67
2023/04/03 03:15:50;;;;;;;2.67;1.10;;;0.70;99.90;;;;;;4945871;28;20043;-67
2023/04/03 03:18:16;;;;;;;5.20;1.23;;;0.70;99.90;;;;;;4939888;28;20054;-67
2023/04/03 03:20:42;;;;;;;3.55;0.90;;;0.70;99.90;;;;;;4946046;28;20043;-67
2023/04/03 03:23:08;;;;;;;4.28;1.55;;;0.60;99.90;;;;;;4950030;28;20094;-67
2023/04/03 03:25:37;;;;;;;3.58;1.25;;;0.60;99.90;;;;;;4939817;28;20166;-67
2023/04/03 03:28:02;;;;;;;3.72;1.27;;;0.60;99.90;;;;;;4938968;28;20130;-67
2023/04/03 03:30:28;;;;;;;6.95;1.58;;;0.50;99.90;;;;;;4945938;28;20126;-66
2023/04/03 03:32:54;;;;;;;7.32;1.27;;;0.50;99.90;;;;;;4939656;28;20035;-67
2023/04/03 03:35:19;;;;;;;5.30;1.45;;;0.50;99.90;;;;;;4939070;28;20098;-67
2023/04/03 03:37:45;;;;;;;4.55;1.10;;;0.50;99.90;;;;;;4944200;28;20802;-67
2023/04/03 03:40:12;;;;;;;3.85;1.08;;;0.50;99.90;;;;;;4947737;28;20055;-67
2023/04/03 03:42:39;;;;;;;2.05;0.98;;;0.40;99.90;;;;;;4946077;28;20078;-67
2023/04/03 03:45:05;;;;;;;2.95;1.45;;;0.40;99.90;;;;;;4941038;28;20036;-66
2023/04/03 03:47:31;;;;;;;5.13;1.48;;;0.40;99.90;;;;;;4944023;28;20047;-67
2023/04/03 03:49:57;;;;;;;2.78;1.23;;;0.40;99.90;;;;;;4958281;28;20073;-67
2023/04/03 03:52:22;;;;;;;4.05;1.50;;;0.40;99.90;;;;;;4941559;28;20079;-67
2023/04/03 03:54:48;;;;;;;2.97;1.27;;;0.30;99.90;;;;;;4941427;28;20031;-67
2023/04/03 03:57:14;;;;;;;4.28;1.48;;;0.40;99.90;;;;;;4945835;28;20042;-67
2023/04/03 03:59:41;;;;;;;5.65;1.17;;;0.30;99.90;;;;;;4945021;28;20043;-66
2023/04/03 04:02:07;;;;;;;6.55;1.42;;;0.30;99.90;;;;;;4943606;28;20059;-67
2023/04/03 04:04:33;;;;;;;4.32;1.40;;;0.30;99.90;;;;;;4949852;28;20051;-66
2023/04/03 04:07:00;;;;;;;4.78;1.25;;;0.30;99.90;;;;;;4946787;28;20156;-66
2023/04/03 04:09:26;;;;;;;5.07;1.70;;;0.30;99.90;;;;;;4945148;28;20052;-66
2023/04/03 04:11:54;;;;;;;4.10;1.27;;;0.20;99.90;;;;;;4945318;28;20039;-66
2023/04/03 04:14:22;;;;;;;4.97;1.20;;;0.20;99.90;;;;;;4944688;28;20043;-66
2023/04/03 04:16:48;;;;;;;6.22;1.30;;;0.20;99.90;;;;;;4948175;28;20051;-67
2023/04/03 04:19:14;;;;;;;3.35;1.20;;;0.20;99.90;;;;;;4947352;28;20041;-66
2023/04/03 04:21:41;;;;;;;6.47;1.80;;;0.20;99.90;;;;;;4942034;28;20089;-67
2023/04/03 04:24:07;;;;;;;4.75;1.40;;;0.20;99.90;;;;;;4943822;28;20123;-67
2023/04/03 04:26:34;;;;;;;5.70;1.42;;;0.20;99.90;;;;;;4948713;28;20499;-67
2023/04/03 04:29:00;;;;;;;5.68;1.70;;;0.10;99.90;;;;;;4942901;28;20486;-66
2023/04/03 04:31:26;;;;;;;6.13;1.73;;;0.10;99.90;;;;;;4943152;28;20131;-67
2023/04/03 04:33:52;;;;;;;7.95;1.63;;;0.00;99.90;;;;;;4941830;28;20027;-66
2023/04/03 04:36:18;;;;;;;2.80;1.38;;;0.00;99.90;;;;;;4945321;28;20498;-66
2023/04/03 04:38:43;;;;;;;4.35;1.40;;;0.00;99.90;;;;;;4946749;28;20039;-66
2023/04/03 04:41:09;;;;;;;4.50;1.65;;;0.00;99.90;;;;;;4943431;28;20142;-66
2023/04/03 04:43:35;;;;;;;5.30;2.03;;;0.00;99.90;;;;;;4946489;28;20051;-67
2023/04/03 04:46:04;;;;;;;3.50;1.58;;;-0.10;99.90;;;;;;4944484;28;20058;-67
2023/04/03 04:48:30;;;;;;;4.78;2.13;;;-0.10;99.90;;;;;;4954387;28;20093;-67
2023/04/03 04:50:55;;;;;;;5.25;2.10;;;-0.20;99.90;;;;;;4946170;28;20050;-67
2023/04/03 04:53:21;;;;;;;7.38;1.67;;;-0.20;99.90;;;;;;4964799;28;20065;-67
2023/04/03 04:55:47;;;;;;;4.95;1.65;;;-0.20;99.90;;;;;;4947999;28;20046;-67
2023/04/03 04:58:13;;;;;;;5.35;1.67;;;-0.20;99.90;;;;;;4982562;28;20478;-67
2023/04/03 05:00:39;;;;;;;5.30;2.03;;;-0.20;99.90;;;;;;4968197;28;20372;-67
2023/04/03 05:03:05;;;;;;;7.10;2.05;;;-0.30;99.90;;;;;;4968738;28;20037;-67
2023/04/03 05:05:30;;;;;;;4.47;2.00;;;-0.30;99.90;;;;;;4985525;28;20514;-67
2023/04/03 05:07:56;;;;;;;6.32;2.20;;;-0.30;99.90;;;;;;4953707;28;21021;-67
2023/04/03 05:10:22;;;;;;;4.10;1.92;;;-0.30;99.90;;;;;;4951455;28;20434;-67
2023/04/03 05:12:47;;;;;;;5.55;1.83;;;-0.30;99.90;;;;;;4965171;28;20046;-67
2023/04/03 05:15:13;;;;;;;6.38;2.28;;;-0.30;99.90;;;;;;4971827;28;20529;-67
2023/04/03 05:17:39;;;;;;;9.55;2.40;;;-0.30;99.90;;;;;;4952479;28;20050;-67
2023/04/03 05:20:06;;;;;;;5.18;1.90;;;-0.30;99.90;;;;;;4970674;28;20066;-67
2023/04/03 05:22:31;;;;;;;7.47;2.35;;;-0.30;99.90;;;;;;4966092;28;20446;-67
2023/04/03 05:24:57;;;;;;;9.50;2.08;;;-0.30;99.90;;;;;;4972257;28;20039;-67
2023/04/03 05:27:24;;;;;;;5.57;2.25;;;-0.30;99.90;;;;;;4967390;28;20051;-67
2023/04/03 05:29:52;;;;;;;6.00;2.25;;;-0.30;99.90;;;;;;4962236;28;20043;-67
2023/04/03 05:32:17;;;;;;;6.60;2.17;;;-0.30;99.90;;;;;;4971527;28;20200;-67
2023/04/03 05:34:43;;;;;;;4.95;2.25;;;-0.20;99.90;;;;;;4953675;28;20142;-67
2023/04/03 05:37:09;;;;;;;10.05;2.10;;;-0.20;99.90;;;;;;4967614;28;20436;-67
2023/04/03 05:39:35;;;;;;;6.35;1.83;;;-0.20;99.90;;;;;;4970402;28;20050;-67
2023/04/03 05:42:01;;;;;;;3.42;1.83;;;-0.20;99.90;;;;;;4972762;28;20122;-67
2023/04/03 05:44:26;;;;;;;3.47;1.67;;;-0.10;99.90;;;;;;4969060;28;20454;-67
2023/04/03 05:46:52;;;;;;;8.32;2.15;;;-0.10;99.90;;;;;;4971600;28;20574;-65
2023/04/03 05:49:18;;;;;;;6.97;2.40;;;0.00;99.90;;;;;;4967414;28;20055;-66
2023/04/03 05:51:45;;;;;;;5.93;2.30;;;0.00;99.90;;;;;;4954137;28;20499;-66
2023/04/03 05:54:23;;;;;;;6.88;1.58;;;0.10;99.90;;;;;;4956948;28;20038;-66
2023/04/03 05:56:50;;;;;;;4.20;1.83;;;0.20;99.90;;;;;;4956212;28;20525;-66
2023/04/03 05:59:16;;;;;;;5.95;2.00;;;0.30;99.90;;;;;;4977724;28;20391;-66
2023/04/03 06:01:42;;;;;;;4.20;1.75;;;0.40;99.90;;;;;;4963907;28;20450;-67
2023/04/03 06:04:08;;;;;;;7.53;1.90;;;0.50;99.90;;;;;;4973421;28;20043;-66
2023/04/03 06:06:53;;;;;;;7.20;2.13;;;0.50;99.90;;;;;;4964485;28;20533;-66
2023/04/03 06:09:26;;;;;;;4.95;2.08;;;0.70;99.90;;;;;;4966574;28;20488;-66
2023/04/03 06:11:52;;;;;;;8.15;2.53;;;0.80;99.90;;;;;;4954168;28;20165;-66
2023/04/03 06:14:18;;;;;;;7.68;2.00;;;0.80;99.90;;;;;;4951553;28;20047;-67
2023/04/03 06:16:45;;;;;;;5.15;1.70;;;0.90;99.90;;;;;;4965514;28;20041;-67
2023/04/03 06:19:12;;;;;;;7.30;1.98;;;1.00;99.90;;;;;;4965582;28;20039;-66
2023/04/03 06:21:37;;;;;;;8.90;2.47;;;1.10;99.90;;;;;;4950432;28;20047;-67
2023/04/03 06:24:07;;;;;;;5.20;1.80;;;1.20;99.90;;;;;;4962639;28;20041;-67
2023/04/03 06:26:33;;;;;;;5.15;1.67;;;1.30;99.90;;;;;;4949842;28;20804;-67
2023/04/03 06:29:00;;;;;;;5.75;1.88;;;1.40;99.90;;;;;;4961855;28;20046;-67
2023/04/03 06:31:26;;;;;;;6.22;1.85;;;1.50;99.90;;;;;;4969027;28;20047;-67
2023/04/03 06:33:52;;;;;;;5.20;1.92;;;1.60;99.90;;;;;;4948416;28;20043;-67
2023/04/03 06:36:20;;;;;;;5.47;1.60;;;1.70;99.90;;;;;;4966653;28;20073;-67
2023/04/03 06:38:46;;;;;;;5.93;1.48;;;1.80;99.90;;;;;;4970823;28;20038;-67
2023/04/03 06:41:12;;;;;;;6.18;1.77;;;1.90;99.90;;;;;;4969484;28;20054;-67
2023/04/03 06:43:38;;;;;;;4.65;1.80;;;2.00;99.90;;;;;;4963856;28;20043;-67
2023/04/03 06:46:04;;;;;;;6.32;2.53;;;2.10;99.90;;;;;;4966649;28;20088;-68
2023/04/03 06:48:30;;;;;;;8.57;1.80;;;2.20;99.90;;;;;;4947881;28;20178;-67
2023/04/03 06:50:56;;;;;;;6.32;1.73;;;2.20;99.90;;;;;;4936457;28;20149;-67
2023/04/03 06:53:22;;;;;;;8.07;2.03;;;2.40;99.90;;;;;;4949189;28;20039;-67
2023/04/03 06:55:48;;;;;;;7.43;2.08;;;2.50;99.90;;;;;;4962049;28;20053;-67
2023/04/03 06:58:15;;;;;;;4.05;1.42;;;2.60;99.90;;;;;;4969048;28;20038;-67
2023/04/03 07:00:41;;;;;;;7.13;2.08;;;2.70;99.90;;;;;;4953475;28;20124;-67
2023/04/03 07:03:07;;;;;;;5.90;1.58;;;2.80;99.90;;;;;;4970175;28;20775;-68
2023/04/03 07:05:33;;;;;;;3.42;1.25;;;2.90;99.90;;;;;;4948778;28;20098;-67
2023/04/03 07:07:58;;;;;;;6.20;1.83;;;3.00;99.90;;;;;;4967423;28;20543;-68
2023/04/03 07:10:24;;;;;;;3.45;1.30;;;3.00;99.90;;;;;;4946484;28;20043;-68
2023/04/03 07:12:50;;;;;;;5.00;1.73;;;3.10;99.90;;;;;;4946855;28;20082;-68
2023/04/03 07:15:16;;;;;;;5.43;1.30;;;3.30;99.90;;;;;;4968332;28;20039;-68
2023/04/03 07:17:42;;;;;;;6.45;1.55;;;3.50;99.90;;;;;;4966427;28;20050;-68
2023/04/03 07:20:08;;;;;;;3.95;1.13;;;3.50;99.90;;;;;;4952158;28;20110;-68
2023/04/03 07:22:34;;;;;;;3.40;1.33;;;3.70;99.90;;;;;;4968877;28;20499;-68
2023/04/03 07:25:00;;;;;;;4.70;1.60;;;3.80;99.90;;;;;;4941708;28;20050;-68
2023/04/03 07:27:25;;;;;;;4.45;1.17;;;4.00;99.90;;;;;;4967918;28;20089;-68
2023/04/03 07:29:51;;;;;;;4.28;1.65;;;4.10;99.90;;;;;;4963289;28;20069;-68
2023/04/03 07:32:17;;;;;;;5.32;1.27;;;4.30;99.90;;;;;;4966413;28;20034;-68
2023/04/03 07:34:43;;;;;;;4.80;1.23;;;4.60;99.90;;;;;;4949188;28;20475;-68
2023/04/03 07:37:09;;;;;;;5.72;1.73;;;4.80;99.90;;;;;;4968453;28;20114;-68
2023/04/03 07:39:35;;;;;;;3.83;1.10;;;5.00;99.90;;;;;;4967558;28;20043;-68
2023/04/03 07:42:01;;;;;;;3.65;1.10;;;5.20;99.90;;;;;;4944030;28;20460;-68
2023/04/03 07:44:27;;;;;;;6.80;1.58;;;5.50;99.90;;;;;;4963115;28;20118;-68
2023/04/03 07:46:55;;;;;;;4.50;1.17;;;5.80;99.90;;;;;;4947873;28;20105;-68
2023/04/03 07:49:23;;;;;;;3.25;1.02;;;6.20;99.90;;;;;;4949785;28;20051;-68
2023/04/03 07:51:50;;;;;;;7.55;1.35;;;6.70;99.90;;;;;;4950186;28;20455;-68
2023/04/03 07:54:15;;;;;;;6.22;1.42;;;7.40;99.90;;;;;;4966017;28;20034;-68
2023/04/03 07:56:42;;;;;;;5.93;1.70;;;8.30;99.90;;;;;;4948014;28;20090;-69
2023/04/03 07:59:10;;;;;;;3.47;1.00;;;8.90;99.90;;;;;;4945266;28;20108;-68
2023/04/03 08:01:35;;;;;;;4.05;1.00;;;9.40;99.90;;;;;;4939551;28;20081;-68
2023/04/03 08:04:01;;;;;;;4.60;1.05;;;9.90;99.90;;;;;;4968409;28;20062;-69
2023/04/03 08:06:29;;;;;;;2.65;0.80;;;10.20;99.90;;;;;;4948569;28;20051;-69
2023/04/03 08:08:55;;;;;;;2.83;0.77;;;10.50;99.90;;;;;;4964182;28;20508;-69
2023/04/03 08:11:21;;;;;;;4.30;1.25;;;10.60;99.90;;;;;;4961326;28;20039;-69
2023/04/03 08:13:47;;;;;;;2.30;0.70;;;10.50;99.90;;;;;;4968449;28;20491;-69
2023/04/03 08:16:17;;;;;;;3.03;0.90;;;10.80;99.90;;;;;;4963563;28;20051;-69
2023/04/03 08:18:44;;;;;;;2.97;0.82;;;10.80;99.90;;;;;;4961823;28;20149;-69
2023/04/03 08:21:11;;;;;;;5.13;1.02;;;11.10;99.70;;;;;;4964370;28;20485;-66
2023/04/03 08:23:39;;;;;;;2.42;0.80;;;11.00;96.60;;;;;;4963178;28;20050;-66
2023/04/03 08:26:13;;;;;;;3.28;0.70;;;11.30;97.00;;;;;;4964751;28;20126;-66
2023/04/03 08:28:39;;;;;;;6.30;3.30;;;11.70;96.80;;;;;;4967434;28;20027;-67
2023/04/03 08:31:11;;;;;;;3.85;0.70;;;11.80;96.80;;;;;;4979332;28;20042;-67
2023/04/03 08:33:38;;;;;;;4.20;1.90;;;11.90;94.00;;;;;;4963621;28;20513;-69
2023/04/03 08:36:06;;;;;;;3.78;1.10;;;12.00;94.90;;;;;;4963712;28;20122;-67
2023/04/03 08:38:32;;;;;;;3.65;0.90;;;12.20;94.90;;;;;;4973588;28;20245;-67
2023/04/03 08:41:13;;;;;;;3.38;0.93;;;12.50;94.50;;;;;;4965414;28;20114;-67
2023/04/03 08:43:46;;;;;;;3.05;0.80;;;12.80;93.20;;;;;;4962679;28;20050;-68
2023/04/03 08:46:15;;;;;;;2.08;0.75;;;13.10;93.60;;;;;;4963944;28;20042;-68
2023/04/03 08:48:43;;;;;;;2.33;0.70;;;13.50;92.60;;;;;;4958559;28;20039;-68
2023/04/03 08:51:16;;;;;;;4.25;0.80;;;13.60;92.60;;;;;;4963703;28;20051;-68
2023/04/03 08:53:58;;;;;;;3.58;0.93;;;13.70;88.90;;;;;;4965720;28;20567;-68
2023/04/03 08:56:25;;;;;;;2.78;0.80;;;13.60;82.80;;;;;;4963277;28;20044;-68
2023/04/03 08:58:59;;;;;;;3.83;0.98;;;13.40;80.00;;;;;;4958753;28;20042;-68
2023/04/03 09:01:35;;;;;;;;;;;13.50;81.80;;;;;;4949530;28;20488;-68
2023/04/03 09:04:03;;;;;;;3.17;0.80;;;13.50;82.20;;;;;;4965419;28;20393;-68
2023/04/03 09:06:32;;;;;;;1.60;0.57;;;13.40;80.60;;;;;;4962164;28;20118;-68
2023/04/03 09:09:22;;;;;;;2.22;0.65;;;13.50;78.70;;;;;;4958190;28;20043;-68
2023/04/03 09:12:00;;;;;;;2.25;0.57;;;13.60;73.30;;;;;;4934368;28;20077;-68
2023/04/03 09:15:28;;;;;;;2.65;0.60;;;13.40;74.20;;;;;;4945345;28;20035;-68
2023/04/03 09:18:05;;;;;;;3.65;0.70;;;13.60;74.90;;;;;;4895601;29;20048;-68
2023/04/03 09:20:41;;;;;;;2.30;0.70;;;13.60;73.90;;;;;;4940125;28;20387;-67
2023/04/03 09:23:44;;;;;;;2.53;0.70;;;13.80;73.50;;;;;;4968274;28;20534;-68
2023/04/03 09:26:19;;;;;;;2.03;0.60;;;13.80;69.70;;;;;;4952180;28;20226;-68
2023/04/03 09:28:45;;;;;;;2.33;0.90;;;13.80;70.00;;;;;;4962067;28;20042;-69
2023/04/03 09:31:27;;;;;;;3.17;0.80;;;13.90;69.30;;;;;;4963902;28;20046;-68
2023/04/03 09:33:59;;;;;;;2.38;0.52;;;13.70;65.60;;;;;;4948082;28;20387;-69
2023/04/03 09:36:46;;;;;;;4.50;0.45;;;13.80;67.40;;;;;;4945426;28;20047;-69
2023/04/03 09:39:28;;;;;;;1.80;0.60;;;14.00;63.70;;;;;;4965666;28;20039;-68
2023/04/03 09:42:19;;;;;;;1.60;0.40;;;14.10;67.00;;;;;;4966720;28;20046;-68
2023/04/03 09:45:00;;;;;;;1.52;0.60;;;14.40;56.10;;;;;;4943976;28;20043;-69
2023/04/03 09:47:29;;;;;;;1.92;0.50;;;13.90;59.40;;;;;;4969345;28;20051;-69
2023/04/03 09:50:13;;;;;;;2.42;0.75;;;13.90;61.90;;;;;;4951009;28;20138;-69
2023/04/03 09:52:40;;;;;;;1.20;0.30;;;14.10;59.50;;;;;;4950905;28;20427;-68
2023/04/03 09:55:18;;;;;;;2.80;0.63;;;14.00;59.00;;;;;;4972110;28;20375;-69
2023/04/03 09:57:45;;;;;;;1.08;0.30;;;14.00;57.30;;;;;;4967789;28;20039;-69
2023/04/03 10:00:26;;;;;;;2.00;0.45;;;14.00;57.00;;;;;;4968885;28;20066;-68
2023/04/03 10:02:56;;;;;;;1.45;0.40;;;13.90;54.40;;;;;;4966023;28;20125;-68
2023/04/03 10:05:31;;;;;;;2.13;0.32;;;13.80;57.50;;;;;;4931265;28;20504;-68
2023/04/03 10:08:15;;;;;;;2.17;0.70;;;14.00;60.20;;;;;;4964136;28;20047;-69
2023/04/03 10:10:46;;;;;;;1.65;0.40;;;14.30;57.50;;;;;;4950200;28;20138;-68
2023/04/03 10:13:18;;;;;;;1.92;0.50;;;14.40;55.50;;;;;;4946212;28;20050;-68
2023/04/03 10:16:08;;;;;;;1.67;0.50;;;14.20;56.20;;;;;;4940456;28;20459;-69
2023/04/03 10:18:33;;;;;;;3.08;0.88;;;14.20;52.20;;;;;;4965090;28;20039;-69
2023/04/03 10:21:08;;;;;;;1.73;0.52;;;14.20;56.40;;;;;;4929993;28;20047;-69
2023/04/03 10:23:48;;;;;;;1.13;0.30;;;14.10;55.10;;;;;;4947421;28;20131;-69
2023/04/03 10:26:26;;;;;;;2.08;0.95;;;14.20;53.40;;;;;;4960657;28;20081;-69
2023/04/03 10:29:10;;;;;;;1.67;0.50;;;14.20;54.40;;;;;;4966042;28;20046;-69
2023/04/03 10:31:46;;;;;;;2.67;0.47;;;14.10;55.50;;;;;;4978725;28;20055;-68
2023/04/03 10:34:21;;;;;;;3.38;0.50;;;14.00;53.30;;;;;;4961116;28;20037;-68
2023/04/03 10:37:06;;;;;;;1.10;0.40;;;14.10;55.10;;;;;;4964825;28;20053;-68
2023/04/03 10:39:40;;;;;;;;;;;13.90;48.90;;;;;;4950535;28;20173;-68
2023/04/03 10:42:21;;;;;;;1.30;0.30;;;13.90;55.60;;;;;;4983335;28;20405;-68
2023/04/03 10:45:18;;;;;;;3.10;0.70;;;13.90;55.80;;;;;;4952953;28;20169;-69
2023/04/03 10:47:53;;;;;;;1.80;0.40;;;14.30;56.50;;;;;;4967423;28;20069;-68
2023/04/03 10:50:40;;;;;;;2.47;0.60;;;14.30;51.20;;;;;;4966676;28;20054;-68
2023/04/03 10:53:18;;;;;;;2.65;0.82;;;14.20;51.10;;;;;;4963635;28;20385;-68
2023/04/03 10:55:57;;;;;;;1.67;0.50;;;13.50;49.00;;;;;;4967616;28;20597;-68
2023/04/03 10:58:36;;;;;;;1.60;0.68;;;13.70;53.00;;;;;;4964557;28;20510;-68
2023/04/03 11:01:14;;;;;;;2.10;0.50;;;13.90;50.20;;;;;;4966249;28;20181;-68
2023/04/03 11:03:51;;;;;;;2.45;0.40;;;13.70;49.30;;;;;;4961636;28;20137;-68
2023/04/03 11:06:19;;;;;;;2.70;0.50;;;13.50;50.10;;;;;;4953081;28;20197;-68
2023/04/03 11:08:56;;;;;;;1.77;0.40;;;13.50;53.10;;;;;;4969948;28;20038;-68
2023/04/03 11:11:27;;;;;;;2.35;0.45;;;13.60;50.70;;;;;;4964859;28;20045;-68
2023/04/03 11:14:05;;;;;;;1.50;0.40;;;13.60;52.80;;;;;;4966644;28;20039;-69
2023/04/03 11:16:36;;;;;;;3.25;0.63;;;13.80;49.90;;;;;;4971979;28;20038;-69
2023/04/03 11:19:12;;;;;;;2.35;0.60;;;13.60;50.80;;;;;;4963018;28;20085;-69
2023/04/03 11:21:39;;;;;;;3.30;0.85;;;13.40;50.10;;;;;;4949401;28;20105;-69
2023/04/03 11:24:20;;;;;;;1.20;0.40;;;13.50;52.10;;;;;;4967747;28;20034;-69
2023/04/03 11:26:48;;;;;;;2.75;0.68;;;13.70;51.00;;;;;;4949561;28;20108;-69
2023/04/03 11:29:21;;;;;;;3.20;0.50;;;14.00;51.50;;;;;;4968977;28;20043;-70
2023/04/03 11:32:14;;;;;;;2.08;0.40;;;13.90;49.50;;;;;;4950230;28;20039;-69
2023/04/03 11:34:43;;;;;;;1.73;0.60;;;14.20;50.00;;;;;;4951227;28;20339;-69
2023/04/03 11:37:31;;;;;;;1.48;0.35;;;14.40;46.90;;;;;;4965218;28;20045;-69
2023/04/03 11:40:00;;;;;;;3.28;1.25;;;13.90;47.00;;;;;;4949164;28;20038;-69
2023/04/03 11:42:37;;;;;;;4.43;1.65;;;14.10;49.80;;;;;;4952709;28;20336;-70
2023/04/03 11:45:21;;;;;;;2.05;0.90;;;14.10;47.70;;;;;;4972804;28;20038;-78
2023/04/03 11:47:50;;;;;;;2.70;0.60;;;14.20;46.30;;;;;;4971682;28;20050;-73
2023/04/03 11:50:34;;;;;;;1.95;0.52;;;14.20;48.10;;;;;;4945480;28;20081;-74
2023/04/03 11:53:21;;;;;;;2.67;0.50;;;14.30;45.70;;;;;;4952563;28;20051;-68
2023/04/03 11:55:50;;;;;;;2.33;0.85;;;14.10;47.50;;;;;;4959380;28;20051;-68
2023/04/03 11:58:18;;;;;;;1.80;0.50;;;14.30;48.20;;;;;;4976787;28;20066;-66
2023/04/03 12:00:46;;;;;;;2.17;0.60;;;14.30;47.40;;;;;;4957699;28;20038;-68
2023/04/03 12:06:13;;;;;;;1.67;0.50;;;14.80;46.40;;;;;;4947539;28;20161;-68
2023/04/03 12:08:41;;;;;;;1.90;0.60;;;15.10;46.60;;;;;;4958053;28;20441;-69
2023/04/03 12:11:10;;;;;;;2.33;0.50;;;15.10;47.20;;;;;;4967020;28;20494;-69
2023/04/03 12:13:57;;;;;;;2.40;0.50;;;15.10;48.70;;;;;;4946153;28;20044;-68
2023/04/03 12:16:34;;;;;;;1.92;0.50;;;15.10;48.10;;;;;;4964946;28;20115;-68
2023/04/03 12:19:02;;;;;;;1.85;0.63;;;15.10;45.80;;;;;;4957632;28;20035;-68
2023/04/03 12:21:33;;;;;;;2.13;0.60;;;15.00;47.10;;;;;;4948576;28;20062;-68
2023/04/03 12:24:08;;;;;;;1.60;0.50;;;15.10;47.10;;;;;;4964693;28;20110;-68
2023/04/03 12:26:59;;;;;;;1.80;0.68;;;15.20;46.80;;;;;;4962757;28;20117;-68
2023/04/03 12:29:33;;;;;;;2.08;0.55;;;15.60;46.30;;;;;;4958998;28;20049;-68
2023/04/03 12:32:05;;;;;;;1.17;0.40;;;15.90;48.00;;;;;;4963164;28;20042;-69
2023/04/03 12:34:48;;;;;;;3.05;1.00;;;16.20;46.90;;;;;;4948505;28;20138;-68
2023/04/03 12:38:08;;;;;;;2.92;0.70;;;15.90;47.00;;;;;;4962371;28;20045;-69
2023/04/03 12:40:49;;;;;;;3.47;0.70;;;16.10;46.20;;;;;;4918479;29;20277;-69
2023/04/03 12:43:24;;;;;;;1.58;0.60;;;16.20;46.40;;;;;;4968022;28;20053;-68
2023/04/03 12:46:01;;;;;;;2.80;0.50;;;16.50;45.50;;;;;;4943950;28;20066;-68
2023/04/03 12:48:29;;;;;;;2.53;0.80;;;16.50;46.70;;;;;;4943545;28;20050;-68
2023/04/03 12:50:57;;;;;;;1.60;0.43;;;16.70;46.40;;;;;;4950783;28;20043;-67
2023/04/03 12:53:34;;;;;;;1.67;0.50;;;16.50;46.00;;;;;;4945976;28;20043;-68
2023/04/03 12:56:18;;;;;;;2.22;0.57;;;16.50;46.10;;;;;;4950894;28;20515;-67
2023/04/03 12:58:45;;;;;;;2.13;0.75;;;16.80;45.80;;;;;;4962734;28;20046;-68
2023/04/03 13:01:14;;;;;;;2.75;0.88;;;16.70;46.80;;;;;;4948487;28;20046;-69
2023/04/03 13:03:44;;;;;;;1.42;0.50;;;16.70;45.30;;;;;;4970519;28;20038;-69
2023/04/03 13:06:34;;;;;;;2.72;0.70;;;17.00;46.50;;;;;;4963723;28;20053;-68
2023/04/03 13:09:00;;;;;;;1.90;0.63;;;16.90;44.70;;;;;;4964006;28;20048;-68
2023/04/03 13:11:34;;;;;;;3.10;0.80;;;16.70;45.50;;;;;;4951428;28;20047;-68